Aérodrome :
LOGIN :

S'inscrire | Disclaimer

   EN    FR    IT 

 










Légende :    VFR   VFR Marginal   IFR   IFR Intensif   IFR Très Intensif
Visi : 
Plafond : 
>= 8 km
>= 3000ft
5 à 8 km
1000 à 3000 ft
1500m à 5 km
500 à 1000 ft
800 à 1500m
200 à 500 ft
< 800m
< 200 ft
Symboles :   Orages  Brouillard  Fortes neiges  Fortes précipitations  Vent > 20 kt
SIGMETs :   Divers  Orages  Givrage  Turbulence  Onde Orograph.  Cendres Volcan.







- Altitude de l'aérodrome : 370 ft


EBBE - Beauvechain AB

DERNIER METAR :
  • 251725Z AUTO 36008KT 9999 NCD 22/09 Q1024 BLU

METARs EXPIRÉS :
  • 251655Z AUTO 36006KT 9999 NCD 22/09 Q1024 BLU
  • 251625Z AUTO 36007KT 9999 NCD 23/09 Q1024 BLU
  • 251604Z 35008KT 9999 FEW045 SCT220 23/08 Q1025 BLU FCST CANCEL
  • 251555Z 35006KT 9999 FEW045 SCT220 22/08 Q1025 BLU BLU
  • 251525Z 36006KT 9999 FEW045 SCT220 23/07 Q1025 BLU BLU
  • 251455Z 01006KT 9999 FEW040 SCT220 22/09 Q1025 BLU BLU
  • 251425Z 34007KT 9999 FEW035 SCT050 23/10 Q1025 BLU BLU

TAF TAF EBBE
Valide du 25 à 13h jusqu'au 25 à 22h UTC


251141Z 2513/2522 35006KT 9999 SCT020 BKN040
Pas de NOTAMs connus pour ce terrain.



MET'MAP, la Météo Aéronautique d'un coup d'oeil ! - Copyright ORBIFLY Décembre 2007 - Disclaimer

ORBIFLY MET'MAP TEAM :

Programmation & Développement : Alexandra Zaïnal
Conception & Développement : Baudouin d'Aumeries
Co-Programmation & Développement : Marc-Olivier Méhu
Soutien technique & logistique : Manuel Goepfert

Contact : metmap@orbifly.com




SOURCES & CREDITS :

   NOAA